One American Place, Louisiana
Current Conditions -  °F | °C
As of 7:53 AM on Thursday 30 Oct 2014 (Local Time) from KBTR Reporting Station
Clear Clear  
Wind Chill: 11°   Ceiling: Unl
Heat Index: 11°   Visibility: 10mi
Dew Point:   Wind: 3mph
Humidity: 83%   Direction: 40°NE
Pressure: 30.13"   Gusts: NA
Location:  30.4285°N, 91.0224°W
Report Text: KBTR 301253Z 04003KT 10SM CLR 11/08 A3013 RMK AO2 SLP202 T01060078
Loading
Personal Weather Stations






























Interactive Weather Map
Tropical Storm Tracking
New forecast layout! Learn more

10-Day Weather Forecast

Advertisements
Track Severe Weather on mobile